createdAt,value
2018-12-09T00:01:01.022Z,5.00
2018-12-09T00:03:37.315Z,4.93
2018-12-09T00:06:12.104Z,7.83
2018-12-09T00:08:51.593Z,7.97
2018-12-09T00:11:25.301Z,3.13
2018-12-09T00:13:59.702Z,4.37
2018-12-09T00:16:37.691Z,4.07
2018-12-09T00:19:14.928Z,4.07
2018-12-09T00:21:49.871Z,4.67
2018-12-09T00:24:28.267Z,2.33
2018-12-09T00:27:04.793Z,3.70
2018-12-09T00:29:40.897Z,2.53
2018-12-09T00:32:21.904Z,4.57
2018-12-09T00:35:01.675Z,2.77
2018-12-09T00:37:37.599Z,3.00
2018-12-09T00:41:46.150Z,2.73
2018-12-09T00:44:23.645Z,3.30
2018-12-09T00:46:56.304Z,2.97
2018-12-09T00:49:31.350Z,4.03
2018-12-09T00:52:09.394Z,3.90
2018-12-09T00:54:45.784Z,3.43
2018-12-09T00:57:22.286Z,3.60
2018-12-09T00:59:57.534Z,3.03
2018-12-09T01:02:33.502Z,2.33
2018-12-09T01:05:07.990Z,1.10
2018-12-09T01:07:42.477Z,2.83
2018-12-09T01:10:18.027Z,2.87
2018-12-09T01:12:53.554Z,2.77
2018-12-09T01:15:30.576Z,5.20
2018-12-09T01:18:06.725Z,4.07
2018-12-09T01:20:44.154Z,6.10
2018-12-09T01:23:23.822Z,3.43
2018-12-09T01:26:01.026Z,3.67
2018-12-09T01:28:37.032Z,4.73
2018-12-09T01:31:14.803Z,2.77
2018-12-09T01:33:51.203Z,3.70
2018-12-09T01:36:29.038Z,1.83
2018-12-09T01:39:08.268Z,2.73
2018-12-09T01:41:44.149Z,5.00
2018-12-09T01:44:21.593Z,1.80
2018-12-09T01:46:56.274Z,5.23
2018-12-09T01:49:29.708Z,2.90
2018-12-09T01:52:08.394Z,3.97
2018-12-09T01:54:41.920Z,2.70
2018-12-09T01:57:18.245Z,3.73
2018-12-09T01:59:55.997Z,1.67
2018-12-09T02:02:33.661Z,4.37
2018-12-09T02:05:12.829Z,1.53
2018-12-09T02:07:49.352Z,2.33
2018-12-09T02:10:25.756Z,2.23
2018-12-09T02:13:05.698Z,2.80
2018-12-09T02:15:44.448Z,4.10
2018-12-09T02:18:23.202Z,3.43
2018-12-09T02:21:00.544Z,4.70
2018-12-09T02:23:40.366Z,2.53
2018-12-09T02:26:15.926Z,1.57
2018-12-09T02:28:55.174Z,3.13
2018-12-09T02:31:35.733Z,1.70
2018-12-09T02:34:13.689Z,3.07
2018-12-09T02:36:53.240Z,1.90
2018-12-09T02:39:32.635Z,2.10
2018-12-09T02:42:12.104Z,2.80
2018-12-09T02:44:49.389Z,1.97
2018-12-09T02:47:28.975Z,2.60
2018-12-09T02:50:07.192Z,2.23
2018-12-09T02:52:43.342Z,3.73
2018-12-09T02:55:24.347Z,7.97
2018-12-09T02:58:04.140Z,2.63
2018-12-09T03:00:44.379Z,5.07
2018-12-09T03:03:22.127Z,4.43
2018-12-09T03:05:59.585Z,1.33
2018-12-09T03:08:37.285Z,4.30
2018-12-09T03:11:13.452Z,3.10
2018-12-09T03:13:53.761Z,5.80
2018-12-09T03:16:33.924Z,5.33
2018-12-09T03:19:11.764Z,4.23
2018-12-09T03:21:50.733Z,9.50
2018-12-09T03:24:29.300Z,2.03
2018-12-09T03:27:06.514Z,5.07
2018-12-09T03:29:44.278Z,5.10
2018-12-09T03:32:23.485Z,4.70
2018-12-09T03:35:02.527Z,5.60
2018-12-09T03:37:38.966Z,5.67
2018-12-09T03:40:15.957Z,2.77
2018-12-09T03:42:56.051Z,3.47
2018-12-09T03:45:35.493Z,5.20
2018-12-09T03:48:13.290Z,4.20
2018-12-09T03:50:52.252Z,4.73
2018-12-09T03:53:29.793Z,2.77
2018-12-09T03:56:08.127Z,6.00
2018-12-09T03:58:47.381Z,4.60
2018-12-09T04:01:27.597Z,7.27
2018-12-09T04:04:06.214Z,8.20
2018-12-09T04:06:47.013Z,9.77
2018-12-09T04:09:25.911Z,11.70
2018-12-09T04:12:07.480Z,10.73
2018-12-09T04:14:47.589Z,10.50
2018-12-09T04:17:28.436Z,8.67
2018-12-09T04:20:07.924Z,12.60
2018-12-09T04:22:48.947Z,10.60
2018-12-09T04:25:27.424Z,10.50
2018-12-09T04:28:07.143Z,12.63
2018-12-09T04:30:43.446Z,14.10
2018-12-09T04:33:22.514Z,8.00
2018-12-09T04:36:00.661Z,11.97
2018-12-09T04:38:39.307Z,7.63
2018-12-09T04:41:19.421Z,5.93
2018-12-09T04:43:57.805Z,10.13
2018-12-09T04:46:30.965Z,10.97
2018-12-09T04:49:12.127Z,13.80
2018-12-09T04:52:02.622Z,11.57
2018-12-09T04:54:40.061Z,7.10
2018-12-09T04:57:16.756Z,9.67
2018-12-09T04:59:48.844Z,13.37
2018-12-09T05:02:27.949Z,12.90
2018-12-09T05:05:07.361Z,10.50
2018-12-09T05:07:48.156Z,10.67
2018-12-09T05:10:27.192Z,6.07
2018-12-09T05:13:06.639Z,9.53
2018-12-09T05:15:46.282Z,10.20
2018-12-09T05:18:24.127Z,11.37
2018-12-09T05:21:03.274Z,9.80
2018-12-09T05:23:41.661Z,9.93
2018-12-09T05:26:19.457Z,12.87
2018-12-09T05:28:56.522Z,9.13
2018-12-09T05:31:36.469Z,8.33
2018-12-09T05:34:11.862Z,12.17
2018-12-09T05:36:51.127Z,9.67
2018-12-09T05:39:31.873Z,10.40
2018-12-09T05:42:09.668Z,11.87
2018-12-09T05:44:46.955Z,7.83
2018-12-09T05:47:20.274Z,12.13
2018-12-09T05:49:59.045Z,8.67
2018-12-09T05:52:35.837Z,10.07
2018-12-09T05:55:17.936Z,6.90
2018-12-09T05:57:56.825Z,8.47
2018-12-09T06:00:34.294Z,7.30
2018-12-09T06:03:10.327Z,10.70
2018-12-09T06:05:48.648Z,12.87
2018-12-09T06:08:26.845Z,11.83
2018-12-09T06:11:00.499Z,8.73
2018-12-09T06:13:41.598Z,11.23
2018-12-09T06:16:21.736Z,7.97
2018-12-09T06:18:58.721Z,10.00
2018-12-09T06:21:38.547Z,9.70
2018-12-09T06:24:19.980Z,10.83
2018-12-09T06:27:01.955Z,14.17
2018-12-09T06:29:39.468Z,12.47
2018-12-09T06:32:17.713Z,8.43
2018-12-09T06:34:58.426Z,14.87
2018-12-09T06:37:35.496Z,10.17
2018-12-09T06:40:13.489Z,6.90
2018-12-09T06:42:51.205Z,9.70
2018-12-09T06:45:27.928Z,8.17
2018-12-09T06:48:07.118Z,6.07
2018-12-09T06:50:46.613Z,6.10
2018-12-09T06:53:27.057Z,6.10
2018-12-09T06:56:03.835Z,8.07
2018-12-09T06:58:40.642Z,7.10
2018-12-09T07:01:18.663Z,6.10
2018-12-09T07:03:58.300Z,4.70
2018-12-09T07:06:34.645Z,5.20
2018-12-09T07:09:11.934Z,5.37
2018-12-09T07:11:49.907Z,8.27
2018-12-09T07:14:28.527Z,6.37
2018-12-09T07:17:08.954Z,9.57
2018-12-09T07:19:47.956Z,10.77
2018-12-09T07:22:26.225Z,6.27
2018-12-09T07:25:04.553Z,8.97
2018-12-09T07:27:42.057Z,2.77
2018-12-09T07:30:11.783Z,6.13
2018-12-09T07:32:44.708Z,3.97
2018-12-09T07:35:19.635Z,4.97
2018-12-09T07:37:52.843Z,3.90
2018-12-09T07:40:29.411Z,2.47
2018-12-09T07:43:04.832Z,8.57
2018-12-09T07:45:35.856Z,7.50
2018-12-09T07:48:13.964Z,5.93
2018-12-09T07:50:55.555Z,2.17
2018-12-09T07:53:34.202Z,4.00
2018-12-09T07:56:07.460Z,5.07
2018-12-09T07:58:46.010Z,7.83
2018-12-09T08:01:27.460Z,4.70
2018-12-09T08:04:05.477Z,6.43
2018-12-09T08:06:40.407Z,5.03
2018-12-09T08:09:15.632Z,6.00
2018-12-09T08:11:46.129Z,7.23
2018-12-09T08:14:19.534Z,3.10
2018-12-09T08:16:52.286Z,8.33
2018-12-09T08:19:26.596Z,5.00
2018-12-09T08:22:06.079Z,2.57
2018-12-09T08:24:42.390Z,1.47
2018-12-09T08:27:21.015Z,3.40
2018-12-09T08:29:59.153Z,2.17
2018-12-09T08:32:36.729Z,2.03
2018-12-09T08:35:15.310Z,4.17
2018-12-09T08:37:48.835Z,4.47
2018-12-09T08:40:19.764Z,3.53
2018-12-09T08:42:57.455Z,3.40
2018-12-09T08:45:35.813Z,3.27
2018-12-09T08:48:15.255Z,2.50
2018-12-09T08:50:51.599Z,3.40
2018-12-09T08:53:29.962Z,2.80
2018-12-09T08:56:09.573Z,0.97
2018-12-09T08:58:48.713Z,1.80
2018-12-09T09:01:28.899Z,2.33
2018-12-09T09:04:11.715Z,2.47
2018-12-09T09:06:51.083Z,1.40
2018-12-09T09:09:29.966Z,1.87
2018-12-09T09:12:09.029Z,1.23
2018-12-09T09:14:48.184Z,1.60
2018-12-09T09:17:24.155Z,2.93
2018-12-09T09:20:03.069Z,2.20
2018-12-09T09:22:41.917Z,0.70
2018-12-09T09:25:21.779Z,3.77
2018-12-09T09:28:00.362Z,1.80
2018-12-09T09:30:39.779Z,1.10
2018-12-09T09:33:16.471Z,0.83
2018-12-09T09:35:55.628Z,2.27
2018-12-09T09:38:34.706Z,1.73
2018-12-09T09:41:15.163Z,1.07
2018-12-09T09:43:55.073Z,0.50
2018-12-09T09:46:32.809Z,0.47
2018-12-09T09:49:11.445Z,0.67
2018-12-09T09:51:48.178Z,0.77
2018-12-09T09:54:27.040Z,1.63
2018-12-09T09:57:04.605Z,0.67
2018-12-09T09:59:43.040Z,1.90
2018-12-09T10:02:21.362Z,1.37
2018-12-09T10:04:58.256Z,0.30
2018-12-09T10:07:36.526Z,1.03
2018-12-09T10:10:16.459Z,2.23
2018-12-09T10:12:55.699Z,0.43
2018-12-09T10:15:35.249Z,1.90
2018-12-09T10:18:14.733Z,1.70
2018-12-09T10:20:53.141Z,2.17
2018-12-09T10:23:32.810Z,1.63
2018-12-09T10:26:11.377Z,1.47
2018-12-09T10:28:52.966Z,0.37
2018-12-09T10:31:32.233Z,0.83
2018-12-09T10:34:13.499Z,0.30
2018-12-09T10:36:53.038Z,0.30
2018-12-09T10:39:31.442Z,0.30
2018-12-09T10:42:08.893Z,0.23
2018-12-09T10:44:47.031Z,0.30
2018-12-09T10:47:24.104Z,1.13
2018-12-09T10:50:01.956Z,0.30
2018-12-09T10:52:44.883Z,0.40
2018-12-09T10:55:24.925Z,1.13
2018-12-09T10:57:58.950Z,0.27
2018-12-09T11:00:40.017Z,0.50
2018-12-09T11:03:18.209Z,0.40
2018-12-09T11:05:58.974Z,0.40
2018-12-09T11:08:37.679Z,2.63
2018-12-09T11:11:17.370Z,0.63
2018-12-09T11:13:58.158Z,0.70
2018-12-09T11:16:37.497Z,0.83
2018-12-09T11:19:16.113Z,1.03
2018-12-09T11:21:52.576Z,0.70
2018-12-09T11:24:30.492Z,0.70
2018-12-09T11:27:08.045Z,1.53
2018-12-09T11:29:45.799Z,2.17
2018-12-09T11:32:25.987Z,1.30
2018-12-09T11:35:05.649Z,1.60
2018-12-09T11:37:42.313Z,1.70
2018-12-09T11:40:22.167Z,1.10
2018-12-09T11:43:00.401Z,1.27
2018-12-09T11:45:37.847Z,0.63
2018-12-09T11:48:19.084Z,1.27
2018-12-09T11:50:55.204Z,1.50
2018-12-09T11:53:34.404Z,0.87
2018-12-09T11:56:11.992Z,0.60
2018-12-09T11:58:50.334Z,0.80
2018-12-09T12:01:29.249Z,1.43
2018-12-09T12:04:06.187Z,1.43
2018-12-09T12:06:43.314Z,2.07
2018-12-09T12:09:24.684Z,1.60
2018-12-09T12:12:05.594Z,0.50
2018-12-09T12:14:44.647Z,1.60
2018-12-09T12:17:23.001Z,12.13
2018-12-09T12:20:03.344Z,0.80
2018-12-09T12:22:42.824Z,1.73
2018-12-09T12:25:22.123Z,2.30
2018-12-09T12:27:57.476Z,1.00
2018-12-09T12:30:38.490Z,1.57
2018-12-09T12:33:18.548Z,1.03
2018-12-09T12:35:57.029Z,0.90
2018-12-09T12:38:38.655Z,2.37
2018-12-09T12:41:19.450Z,1.33
2018-12-09T12:44:02.925Z,1.27
2018-12-09T12:46:40.723Z,2.30
2018-12-09T12:49:19.521Z,1.50
2018-12-09T12:52:00.421Z,1.20
2018-12-09T12:54:37.631Z,1.00
2018-12-09T12:57:14.807Z,2.07
2018-12-09T12:59:54.376Z,0.83
2018-12-09T13:02:36.073Z,0.70
2018-12-09T13:05:13.602Z,0.60
2018-12-09T13:07:51.161Z,0.97
2018-12-09T13:10:30.395Z,1.20
2018-12-09T13:13:10.877Z,2.13
2018-12-09T13:15:51.091Z,0.70
2018-12-09T13:18:30.806Z,0.90
2018-12-09T13:21:09.427Z,2.00
2018-12-09T13:23:46.647Z,1.83
2018-12-09T13:26:26.671Z,4.50
2018-12-09T13:29:05.475Z,1.13
2018-12-09T13:31:46.115Z,1.43
2018-12-09T13:34:24.218Z,0.67
2018-12-09T13:37:02.140Z,1.40
2018-12-09T13:39:38.294Z,1.00
2018-12-09T13:42:19.785Z,1.67
2018-12-09T13:44:54.103Z,1.27
2018-12-09T13:47:27.836Z,2.47
2018-12-09T13:50:00.523Z,2.57
2018-12-09T13:52:31.803Z,2.93
2018-12-09T13:55:04.106Z,1.30
2018-12-09T13:57:37.897Z,2.30
2018-12-09T14:00:15.350Z,3.47
2018-12-09T14:02:53.137Z,5.97
2018-12-09T14:05:30.396Z,4.47
2018-12-09T14:08:06.365Z,3.30
2018-12-09T14:10:45.371Z,3.87
2018-12-09T14:13:23.150Z,2.27
2018-12-09T14:16:01.226Z,1.57
2018-12-09T14:18:40.665Z,1.83
2018-12-09T14:21:18.975Z,5.63
2018-12-09T14:23:56.457Z,3.70
2018-12-09T14:26:33.959Z,3.03
2018-12-09T14:29:11.996Z,4.53
2018-12-09T14:31:50.371Z,3.20
2018-12-09T14:34:28.934Z,3.67
2018-12-09T14:37:08.219Z,2.90
2018-12-09T14:39:47.341Z,3.23
2018-12-09T14:42:26.059Z,2.63
2018-12-09T14:45:05.064Z,2.17
2018-12-09T14:47:43.000Z,2.20
2018-12-09T14:50:21.233Z,3.63
2018-12-09T14:52:57.259Z,2.80
2018-12-09T14:55:34.330Z,3.90
2018-12-09T14:58:12.506Z,1.80
2018-12-09T15:00:51.272Z,2.33
2018-12-09T15:03:29.929Z,2.17
2018-12-09T15:06:08.103Z,1.87
2018-12-09T15:08:48.340Z,8.67
2018-12-09T15:11:26.946Z,2.70
2018-12-09T15:14:03.072Z,2.20
2018-12-09T15:16:41.731Z,3.17
2018-12-09T15:19:19.509Z,3.33
2018-12-09T15:21:57.359Z,3.00
2018-12-09T15:24:41.319Z,2.03
2018-12-09T15:27:16.546Z,3.23
2018-12-09T15:29:55.391Z,2.57
2018-12-09T15:32:34.552Z,3.90
2018-12-09T15:35:13.358Z,3.60
2018-12-09T15:37:51.953Z,3.73
2018-12-09T15:40:28.439Z,3.83
2018-12-09T15:43:09.773Z,3.63
2018-12-09T15:45:47.906Z,3.70
2018-12-09T15:48:24.415Z,2.37
2018-12-09T15:50:54.589Z,2.93
2018-12-09T15:53:31.120Z,2.57
2018-12-09T15:56:04.946Z,3.60
2018-12-09T15:58:40.567Z,3.27
2018-12-09T16:01:16.346Z,3.60
2018-12-09T16:03:56.437Z,2.73
2018-12-09T16:06:31.203Z,2.33
2018-12-09T16:09:12.479Z,3.53
2018-12-09T16:11:51.885Z,2.53
2018-12-09T16:14:21.531Z,3.70
2018-12-09T16:16:57.650Z,3.07
2018-12-09T16:19:30.410Z,3.13
2018-12-09T16:22:03.279Z,2.73
2018-12-09T16:24:36.723Z,2.80
2018-12-09T16:27:10.767Z,4.97
2018-12-09T16:29:47.364Z,4.77
2018-12-09T16:32:19.430Z,2.90
2018-12-09T16:34:54.463Z,3.20
2018-12-09T16:37:28.444Z,2.90
2018-12-09T16:40:01.461Z,1.93
2018-12-09T16:42:36.765Z,5.03
2018-12-09T16:45:13.042Z,2.60
2018-12-09T16:57:08.241Z,2.27
2018-12-09T16:59:40.758Z,2.90
2018-12-09T17:02:15.856Z,2.90
2018-12-09T17:04:50.363Z,2.77
2018-12-09T17:07:23.091Z,2.07
2018-12-09T17:09:52.448Z,3.10
2018-12-09T17:12:21.797Z,3.27
2018-12-09T17:14:53.537Z,2.27
2018-12-09T17:17:25.521Z,2.63
2018-12-09T17:20:05.897Z,3.20
2018-12-09T17:22:35.914Z,2.40
2018-12-09T17:25:07.773Z,3.87
2018-12-09T17:27:39.814Z,3.50
2018-12-09T17:30:15.929Z,3.47
2018-12-09T17:32:49.535Z,4.90
2018-12-09T17:35:26.915Z,5.53
2018-12-09T17:38:07.523Z,4.00
2018-12-09T17:40:42.779Z,6.03
2018-12-09T17:43:18.307Z,2.70
2018-12-09T17:45:55.386Z,2.87
2018-12-09T17:48:34.626Z,2.27
2018-12-09T17:51:07.915Z,2.80
2018-12-09T17:53:46.490Z,2.23
2018-12-09T17:56:20.280Z,2.77
2018-12-09T17:58:55.601Z,4.50
2018-12-09T18:01:34.125Z,2.87
2018-12-09T18:04:10.567Z,4.23
2018-12-09T18:06:46.167Z,2.93
2018-12-09T18:09:25.122Z,3.13
2018-12-09T18:12:00.849Z,2.50
2018-12-09T18:14:39.928Z,3.63
2018-12-09T18:17:17.960Z,3.80
2018-12-09T18:19:51.680Z,2.77
2018-12-09T18:22:26.640Z,2.20
2018-12-09T18:25:04.929Z,4.07
2018-12-09T18:27:41.620Z,3.87
2018-12-09T18:30:18.491Z,2.47
2018-12-09T18:32:54.488Z,3.30
2018-12-09T18:35:34.082Z,2.40
2018-12-09T18:38:12.041Z,2.53
2018-12-09T18:40:42.208Z,1.03
2018-12-09T18:43:19.999Z,1.33
2018-12-09T18:45:57.675Z,2.00
2018-12-09T18:48:30.760Z,2.43
2018-12-09T18:51:09.445Z,3.27
2018-12-09T18:53:47.708Z,2.10
2018-12-09T18:56:25.893Z,1.33
2018-12-09T18:59:02.488Z,2.37
2018-12-09T19:01:35.136Z,2.77
2018-12-09T19:04:10.655Z,1.57
2018-12-09T19:06:43.241Z,1.20
2018-12-09T19:09:13.203Z,1.50
2018-12-09T19:11:48.701Z,1.40
2018-12-09T19:14:21.492Z,1.00
2018-12-09T19:17:00.176Z,1.33
2018-12-09T19:19:35.218Z,3.00
2018-12-09T19:22:11.964Z,1.67
2018-12-09T19:24:47.526Z,1.83
2018-12-09T19:27:29.653Z,1.67
2018-12-09T19:30:04.205Z,2.17
2018-12-09T19:32:42.987Z,1.03
2018-12-09T19:35:19.746Z,1.57
2018-12-09T19:37:56.196Z,4.20
2018-12-09T19:40:36.035Z,8.63
2018-12-09T19:43:13.431Z,2.77
2018-12-09T19:45:51.076Z,2.40
2018-12-09T19:48:22.951Z,2.97
2018-12-09T19:50:57.505Z,3.60
2018-12-09T19:53:32.235Z,4.13
2018-12-09T19:56:04.442Z,4.40
2018-12-09T19:58:35.608Z,10.37
2018-12-09T20:01:10.168Z,3.53
2018-12-09T20:03:43.024Z,2.63
2018-12-09T20:06:14.592Z,4.23
2018-12-09T20:08:45.591Z,3.23
2018-12-09T20:11:20.141Z,2.70
2018-12-09T20:13:54.549Z,3.23
2018-12-09T20:16:30.784Z,2.73
2018-12-09T20:19:01.766Z,2.63
2018-12-09T20:21:32.387Z,4.43
2018-12-09T20:24:01.368Z,5.53
2018-12-09T20:26:30.109Z,3.40
2018-12-09T20:28:58.928Z,3.77
2018-12-09T20:31:28.126Z,4.20
2018-12-09T20:33:57.021Z,1.97
2018-12-09T20:36:25.977Z,2.63
2018-12-09T20:38:54.738Z,1.97
2018-12-09T20:41:23.550Z,1.40
2018-12-09T20:43:52.622Z,2.90
2018-12-09T20:46:21.773Z,4.17
2018-12-09T20:48:50.589Z,2.13
2018-12-09T20:51:19.573Z,2.77
2018-12-09T20:53:48.535Z,2.77
2018-12-09T20:56:18.181Z,2.60
2018-12-09T20:58:46.974Z,2.70
2018-12-09T21:01:16.088Z,2.57
2018-12-09T21:03:45.315Z,2.50
2018-12-09T21:06:14.184Z,2.53
2018-12-09T21:08:43.114Z,3.43
2018-12-09T21:11:13.056Z,3.60
2018-12-09T21:13:42.514Z,6.47
2018-12-09T21:16:11.357Z,2.53
2018-12-09T21:18:40.217Z,1.73
2018-12-09T21:21:10.055Z,2.00
2018-12-09T21:23:39.325Z,1.30
2018-12-09T21:26:08.350Z,1.30
2018-12-09T21:28:37.443Z,1.57
2018-12-09T21:31:06.262Z,1.37
2018-12-09T21:33:36.503Z,1.23
2018-12-09T21:36:05.554Z,2.90
2018-12-09T21:38:35.560Z,2.23
2018-12-09T21:41:06.578Z,2.43
2018-12-09T21:43:39.267Z,2.30
2018-12-09T21:46:12.807Z,1.20
2018-12-09T21:48:44.283Z,1.00
2018-12-09T21:51:14.453Z,1.63
2018-12-09T21:53:49.177Z,1.77
2018-12-09T21:56:21.645Z,1.53
2018-12-09T21:58:57.145Z,1.00
2018-12-09T22:01:33.508Z,1.30
2018-12-09T22:04:10.256Z,1.10
2018-12-09T22:06:47.475Z,1.77
2018-12-09T22:09:25.665Z,3.13
2018-12-09T22:12:00.167Z,1.90
2018-12-09T22:14:36.670Z,1.27
2018-12-09T22:17:13.984Z,1.03
2018-12-09T22:19:51.963Z,1.10
2018-12-09T22:22:29.579Z,1.80
2018-12-09T22:25:05.915Z,7.63
2018-12-09T22:27:39.199Z,1.33
2018-12-09T22:30:18.849Z,1.60
2018-12-09T22:32:57.354Z,2.30
2018-12-09T22:35:32.846Z,0.87
2018-12-09T22:38:09.215Z,2.20
2018-12-09T22:40:46.406Z,0.93
2018-12-09T22:43:22.692Z,4.87
2018-12-09T22:45:56.537Z,0.50
2018-12-09T22:48:32.293Z,1.53
2018-12-09T22:51:10.411Z,0.70
2018-12-09T22:53:47.776Z,0.50
2018-12-09T22:56:25.535Z,0.53
2018-12-09T22:59:00.595Z,1.53
2018-12-09T23:01:36.260Z,0.90
2018-12-09T23:04:13.143Z,2.20
2018-12-09T23:06:49.313Z,0.90
2018-12-09T23:09:27.002Z,0.93
2018-12-09T23:12:01.218Z,2.63
2018-12-09T23:14:37.284Z,2.40
2018-12-09T23:17:14.035Z,1.00
2018-12-09T23:19:50.352Z,1.10
2018-12-09T23:22:24.741Z,1.73
2018-12-09T23:25:02.864Z,0.70
2018-12-09T23:27:38.907Z,0.80
2018-12-09T23:30:19.154Z,0.50
2018-12-09T23:32:57.143Z,0.70
2018-12-09T23:35:35.330Z,0.80
2018-12-09T23:38:12.208Z,1.90
2018-12-09T23:40:50.748Z,0.80
2018-12-09T23:43:27.163Z,0.60
2018-12-09T23:46:03.911Z,0.60
2018-12-09T23:48:39.250Z,1.07
2018-12-09T23:51:12.960Z,1.60
2018-12-09T23:53:49.422Z,0.70
2018-12-09T23:56:28.053Z,0.80
2018-12-09T23:59:07.650Z,0.77
